sensor_id;sensor_type;location;lat;lon;timestamp;P1;durP1;ratioP1;P2;durP2;ratioP2
63398;SDS011;49533;-34.520;150.798;2022-08-19T00:02:01;1.20;;;0.88;;
63398;SDS011;49533;-34.520;150.798;2022-08-19T00:04:30;3.40;;;0.80;;
63398;SDS011;49533;-34.520;150.798;2022-08-19T00:07:02;0.70;;;0.63;;
63398;SDS011;49533;-34.520;150.798;2022-08-19T00:09:31;1.33;;;0.80;;
63398;SDS011;49533;-34.520;150.798;2022-08-19T00:11:58;2.03;;;0.90;;
63398;SDS011;49533;-34.520;150.798;2022-08-19T00:14:26;2.30;;;0.82;;
63398;SDS011;49533;-34.520;150.798;2022-08-19T00:16:55;4.50;;;1.10;;
63398;SDS011;49533;-34.520;150.798;2022-08-19T00:19:22;1.13;;;0.90;;
63398;SDS011;49533;-34.520;150.798;2022-08-19T00:21:50;1.45;;;0.82;;
63398;SDS011;49533;-34.520;150.798;2022-08-19T00:24:17;2.28;;;1.55;;
63398;SDS011;49533;-34.520;150.798;2022-08-19T00:26:45;0.70;;;0.70;;
63398;SDS011;49533;-34.520;150.798;2022-08-19T00:29:13;1.17;;;1.05;;
63398;SDS011;49533;-34.520;150.798;2022-08-19T00:31:42;1.13;;;0.60;;
63398;SDS011;49533;-34.520;150.798;2022-08-19T00:34:11;2.97;;;1.00;;
63398;SDS011;49533;-34.520;150.798;2022-08-19T00:36:42;0.52;;;0.52;;
63398;SDS011;49533;-34.520;150.798;2022-08-19T00:39:09;0.95;;;0.82;;
63398;SDS011;49533;-34.520;150.798;2022-08-19T00:41:37;1.95;;;0.60;;
63398;SDS011;49533;-34.520;150.798;2022-08-19T00:46:34;2.33;;;0.70;;
63398;SDS011;49533;-34.520;150.798;2022-08-19T00:49:02;15.90;;;0.95;;
63398;SDS011;49533;-34.520;150.798;2022-08-19T00:51:41;0.50;;;0.50;;
63398;SDS011;49533;-34.520;150.798;2022-08-19T00:54:10;0.40;;;0.40;;
63398;SDS011;49533;-34.520;150.798;2022-08-19T00:56:38;1.10;;;0.40;;
63398;SDS011;49533;-34.520;150.798;2022-08-19T00:59:07;0.30;;;0.30;;
63398;SDS011;49533;-34.520;150.798;2022-08-19T01:01:39;1.00;;;0.57;;
63398;SDS011;49533;-34.520;150.798;2022-08-19T01:04:09;1.73;;;0.77;;
63398;SDS011;49533;-34.520;150.798;2022-08-19T01:06:37;0.60;;;0.50;;
63398;SDS011;49533;-34.520;150.798;2022-08-19T01:09:06;1.90;;;0.90;;
63398;SDS011;49533;-34.520;150.798;2022-08-19T01:11:35;2.92;;;1.00;;
63398;SDS011;49533;-34.520;150.798;2022-08-19T01:14:05;2.83;;;0.68;;
63398;SDS011;49533;-34.520;150.798;2022-08-19T01:16:34;1.00;;;0.50;;
63398;SDS011;49533;-34.520;150.798;2022-08-19T01:19:03;1.50;;;0.55;;
63398;SDS011;49533;-34.520;150.798;2022-08-19T01:22:30;2.63;;;0.50;;
63398;SDS011;49533;-34.520;150.798;2022-08-19T01:24:39;0.52;;;0.50;;
63398;SDS011;49533;-34.520;150.798;2022-08-19T01:27:07;1.30;;;0.50;;
63398;SDS011;49533;-34.520;150.798;2022-08-19T01:29:38;3.22;;;0.38;;
63398;SDS011;49533;-34.520;150.798;2022-08-19T01:32:07;1.60;;;0.80;;
63398;SDS011;49533;-34.520;150.798;2022-08-19T01:34:37;0.80;;;0.45;;
63398;SDS011;49533;-34.520;150.798;2022-08-19T01:37:08;3.85;;;0.60;;
63398;SDS011;49533;-34.520;150.798;2022-08-19T01:39:37;3.08;;;0.73;;
63398;SDS011;49533;-34.520;150.798;2022-08-19T01:42:06;0.63;;;0.38;;
63398;SDS011;49533;-34.520;150.798;2022-08-19T01:44:35;1.30;;;0.55;;
63398;SDS011;49533;-34.520;150.798;2022-08-19T01:47:04;0.60;;;0.52;;
63398;SDS011;49533;-34.520;150.798;2022-08-19T01:49:31;0.52;;;0.50;;
63398;SDS011;49533;-34.520;150.798;2022-08-19T01:51:59;0.30;;;0.30;;
63398;SDS011;49533;-34.520;150.798;2022-08-19T01:54:27;0.30;;;0.30;;
63398;SDS011;49533;-34.520;150.798;2022-08-19T01:56:55;1.75;;;0.32;;
63398;SDS011;49533;-34.520;150.798;2022-08-19T01:59:27;0.45;;;0.30;;
63398;SDS011;49533;-34.520;150.798;2022-08-19T02:01:56;0.10;;;0.10;;
63398;SDS011;49533;-34.520;150.798;2022-08-19T02:04:23;0.43;;;0.10;;
63398;SDS011;49533;-34.520;150.798;2022-08-19T02:06:51;0.22;;;0.10;;
63398;SDS011;49533;-34.520;150.798;2022-08-19T02:09:18;0.40;;;0.20;;
63398;SDS011;49533;-34.520;150.798;2022-08-19T02:11:45;0.10;;;0.10;;
63398;SDS011;49533;-34.520;150.798;2022-08-19T02:14:12;1.02;;;0.32;;
63398;SDS011;49533;-34.520;150.798;2022-08-19T02:16:39;0.32;;;0.20;;
63398;SDS011;49533;-34.520;150.798;2022-08-19T02:19:06;0.50;;;0.15;;
63398;SDS011;49533;-34.520;150.798;2022-08-19T02:21:34;0.30;;;0.30;;
63398;SDS011;49533;-34.520;150.798;2022-08-19T02:24:01;0.10;;;0.10;;
63398;SDS011;49533;-34.520;150.798;2022-08-19T02:26:29;0.10;;;0.10;;
63398;SDS011;49533;-34.520;150.798;2022-08-19T02:28:57;0.20;;;0.20;;
63398;SDS011;49533;-34.520;150.798;2022-08-19T02:31:26;0.17;;;0.10;;
63398;SDS011;49533;-34.520;150.798;2022-08-19T02:33:54;0.20;;;0.20;;
63398;SDS011;49533;-34.520;150.798;2022-08-19T02:36:22;0.32;;;0.20;;
63398;SDS011;49533;-34.520;150.798;2022-08-19T02:38:50;0.10;;;0.10;;
63398;SDS011;49533;-34.520;150.798;2022-08-19T02:41:18;0.10;;;0.10;;
63398;SDS011;49533;-34.520;150.798;2022-08-19T02:43:47;0.10;;;0.10;;
63398;SDS011;49533;-34.520;150.798;2022-08-19T02:46:24;0.38;;;0.38;;
63398;SDS011;49533;-34.520;150.798;2022-08-19T02:48:55;0.20;;;0.20;;
63398;SDS011;49533;-34.520;150.798;2022-08-19T02:51:27;0.28;;;0.25;;
63398;SDS011;49533;-34.520;150.798;2022-08-19T02:53:56;0.13;;;0.13;;
63398;SDS011;49533;-34.520;150.798;2022-08-19T02:56:24;0.75;;;0.30;;
63398;SDS011;49533;-34.520;150.798;2022-08-19T02:58:54;0.40;;;0.20;;
63398;SDS011;49533;-34.520;150.798;2022-08-19T03:01:26;0.30;;;0.30;;
63398;SDS011;49533;-34.520;150.798;2022-08-19T03:03:58;0.25;;;0.20;;
63398;SDS011;49533;-34.520;150.798;2022-08-19T03:06:27;0.25;;;0.25;;
63398;SDS011;49533;-34.520;150.798;2022-08-19T03:08:54;0.45;;;0.28;;
63398;SDS011;49533;-34.520;150.798;2022-08-19T03:11:24;0.15;;;0.15;;
63398;SDS011;49533;-34.520;150.798;2022-08-19T03:13:53;0.40;;;0.30;;
63398;SDS011;49533;-34.520;150.798;2022-08-19T03:16:23;0.15;;;0.10;;
63398;SDS011;49533;-34.520;150.798;2022-08-19T03:18:52;0.20;;;0.20;;
63398;SDS011;49533;-34.520;150.798;2022-08-19T03:21:21;0.20;;;0.20;;
63398;SDS011;49533;-34.520;150.798;2022-08-19T03:23:54;0.60;;;0.20;;
63398;SDS011;49533;-34.520;150.798;2022-08-19T03:26:22;0.13;;;0.13;;
63398;SDS011;49533;-34.520;150.798;2022-08-19T03:28:49;0.10;;;0.10;;
63398;SDS011;49533;-34.520;150.798;2022-08-19T03:31:18;0.15;;;0.10;;
63398;SDS011;49533;-34.520;150.798;2022-08-19T03:33:50;1.05;;;0.20;;
63398;SDS011;49533;-34.520;150.798;2022-08-19T03:36:19;0.20;;;0.20;;
63398;SDS011;49533;-34.520;150.798;2022-08-19T03:38:54;0.30;;;0.20;;
63398;SDS011;49533;-34.520;150.798;2022-08-19T03:41:24;0.10;;;0.10;;
63398;SDS011;49533;-34.520;150.798;2022-08-19T03:43:57;0.10;;;0.10;;
63398;SDS011;49533;-34.520;150.798;2022-08-19T03:46:26;0.17;;;0.17;;
63398;SDS011;49533;-34.520;150.798;2022-08-19T03:48:56;0.65;;;0.20;;
63398;SDS011;49533;-34.520;150.798;2022-08-19T03:51:30;0.30;;;0.20;;
63398;SDS011;49533;-34.520;150.798;2022-08-19T03:54:00;0.15;;;0.10;;
63398;SDS011;49533;-34.520;150.798;2022-08-19T03:56:29;2.85;;;0.38;;
63398;SDS011;49533;-34.520;150.798;2022-08-19T03:58:57;1.20;;;0.32;;
63398;SDS011;49533;-34.520;150.798;2022-08-19T04:01:26;0.57;;;0.17;;
63398;SDS011;49533;-34.520;150.798;2022-08-19T04:03:54;0.17;;;0.17;;
63398;SDS011;49533;-34.520;150.798;2022-08-19T04:06:23;2.40;;;0.15;;
63398;SDS011;49533;-34.520;150.798;2022-08-19T04:08:58;4.65;;;0.20;;
63398;SDS011;49533;-34.520;150.798;2022-08-19T04:11:28;3.03;;;0.10;;
63398;SDS011;49533;-34.520;150.798;2022-08-19T04:14:00;0.15;;;0.15;;
63398;SDS011;49533;-34.520;150.798;2022-08-19T04:16:28;0.38;;;0.38;;
63398;SDS011;49533;-34.520;150.798;2022-08-19T04:18:56;0.75;;;0.30;;
63398;SDS011;49533;-34.520;150.798;2022-08-19T04:21:27;1.90;;;1.58;;
63398;SDS011;49533;-34.520;150.798;2022-08-19T04:23:55;2.22;;;1.25;;
63398;SDS011;49533;-34.520;150.798;2022-08-19T04:26:26;0.30;;;0.30;;
63398;SDS011;49533;-34.520;150.798;2022-08-19T04:28:59;3.45;;;0.77;;
63398;SDS011;49533;-34.520;150.798;2022-08-19T04:31:28;5.57;;;1.42;;
63398;SDS011;49533;-34.520;150.798;2022-08-19T04:33:58;5.57;;;1.60;;
63398;SDS011;49533;-34.520;150.798;2022-08-19T04:36:29;4.93;;;1.30;;
63398;SDS011;49533;-34.520;150.798;2022-08-19T04:38:58;3.72;;;1.00;;
63398;SDS011;49533;-34.520;150.798;2022-08-19T04:41:27;6.45;;;1.30;;
63398;SDS011;49533;-34.520;150.798;2022-08-19T04:44:12;6.25;;;1.65;;
63398;SDS011;49533;-34.520;150.798;2022-08-19T04:46:44;5.85;;;1.58;;
63398;SDS011;49533;-34.520;150.798;2022-08-19T04:49:13;3.28;;;1.17;;
63398;SDS011;49533;-34.520;150.798;2022-08-19T04:51:43;7.93;;;1.40;;
63398;SDS011;49533;-34.520;150.798;2022-08-19T04:54:13;1.90;;;1.08;;
63398;SDS011;49533;-34.520;150.798;2022-08-19T04:56:40;5.40;;;1.45;;
63398;SDS011;49533;-34.520;150.798;2022-08-19T04:59:07;3.28;;;1.27;;
63398;SDS011;49533;-34.520;150.798;2022-08-19T05:01:36;3.53;;;1.00;;
63398;SDS011;49533;-34.520;150.798;2022-08-19T05:04:04;4.32;;;1.02;;
63398;SDS011;49533;-34.520;150.798;2022-08-19T05:06:33;4.45;;;0.98;;
63398;SDS011;49533;-34.520;150.798;2022-08-19T05:09:02;4.25;;;0.82;;
63398;SDS011;49533;-34.520;150.798;2022-08-19T05:11:32;4.85;;;1.10;;
63398;SDS011;49533;-34.520;150.798;2022-08-19T05:14:05;0.93;;;0.70;;
63398;SDS011;49533;-34.520;150.798;2022-08-19T05:16:32;7.38;;;0.90;;
63398;SDS011;49533;-34.520;150.798;2022-08-19T05:18:59;2.30;;;0.80;;
63398;SDS011;49533;-34.520;150.798;2022-08-19T05:21:45;2.33;;;1.02;;
63398;SDS011;49533;-34.520;150.798;2022-08-19T05:24:30;3.58;;;0.77;;
63398;SDS011;49533;-34.520;150.798;2022-08-19T05:26:59;4.47;;;0.88;;
63398;SDS011;49533;-34.520;150.798;2022-08-19T05:29:29;1.88;;;0.75;;
63398;SDS011;49533;-34.520;150.798;2022-08-19T05:32:00;2.15;;;0.85;;
63398;SDS011;49533;-34.520;150.798;2022-08-19T05:34:28;1.48;;;0.40;;
63398;SDS011;49533;-34.520;150.798;2022-08-19T05:36:57;1.45;;;0.60;;
63398;SDS011;49533;-34.520;150.798;2022-08-19T05:39:26;1.58;;;0.60;;
63398;SDS011;49533;-34.520;150.798;2022-08-19T05:41:56;0.80;;;0.43;;
63398;SDS011;49533;-34.520;150.798;2022-08-19T05:44:27;3.05;;;0.80;;
63398;SDS011;49533;-34.520;150.798;2022-08-19T05:46:59;0.75;;;0.47;;
63398;SDS011;49533;-34.520;150.798;2022-08-19T05:49:28;2.72;;;0.60;;
63398;SDS011;49533;-34.520;150.798;2022-08-19T05:51:55;1.45;;;0.47;;
63398;SDS011;49533;-34.520;150.798;2022-08-19T05:54:23;1.15;;;0.60;;
63398;SDS011;49533;-34.520;150.798;2022-08-19T05:56:51;0.80;;;0.40;;
63398;SDS011;49533;-34.520;150.798;2022-08-19T05:59:19;0.68;;;0.50;;
63398;SDS011;49533;-34.520;150.798;2022-08-19T06:01:47;1.25;;;0.40;;
63398;SDS011;49533;-34.520;150.798;2022-08-19T06:06:48;2.13;;;0.68;;
63398;SDS011;49533;-34.520;150.798;2022-08-19T06:09:20;0.95;;;0.40;;
63398;SDS011;49533;-34.520;150.798;2022-08-19T06:11:49;0.55;;;0.30;;
63398;SDS011;49533;-34.520;150.798;2022-08-19T06:14:25;1.35;;;0.55;;
63398;SDS011;49533;-34.520;150.798;2022-08-19T06:16:55;1.27;;;0.40;;
63398;SDS011;49533;-34.520;150.798;2022-08-19T06:19:27;0.47;;;0.38;;
63398;SDS011;49533;-34.520;150.798;2022-08-19T06:21:56;1.70;;;0.43;;
63398;SDS011;49533;-34.520;150.798;2022-08-19T06:24:25;0.50;;;0.40;;
63398;SDS011;49533;-34.520;150.798;2022-08-19T06:26:54;0.68;;;0.30;;
63398;SDS011;49533;-34.520;150.798;2022-08-19T06:29:22;0.30;;;0.30;;
63398;SDS011;49533;-34.520;150.798;2022-08-19T06:31:51;0.30;;;0.30;;
63398;SDS011;49533;-34.520;150.798;2022-08-19T06:34:21;0.80;;;0.80;;
63398;SDS011;49533;-34.520;150.798;2022-08-19T06:36:50;2.33;;;0.32;;
63398;SDS011;49533;-34.520;150.798;2022-08-19T06:39:19;0.30;;;0.30;;
63398;SDS011;49533;-34.520;150.798;2022-08-19T06:41:50;2.08;;;0.90;;
63398;SDS011;49533;-34.520;150.798;2022-08-19T06:44:20;0.75;;;0.25;;
63398;SDS011;49533;-34.520;150.798;2022-08-19T06:46:49;2.45;;;0.50;;
63398;SDS011;49533;-34.520;150.798;2022-08-19T06:49:16;0.40;;;0.35;;
63398;SDS011;49533;-34.520;150.798;2022-08-19T06:51:44;0.20;;;0.20;;
63398;SDS011;49533;-34.520;150.798;2022-08-19T06:54:14;0.40;;;0.30;;
63398;SDS011;49533;-34.520;150.798;2022-08-19T06:56:43;0.28;;;0.28;;
63398;SDS011;49533;-34.520;150.798;2022-08-19T06:59:12;0.30;;;0.30;;
63398;SDS011;49533;-34.520;150.798;2022-08-19T07:01:50;0.45;;;0.30;;
63398;SDS011;49533;-34.520;150.798;2022-08-19T07:04:19;0.43;;;0.40;;
63398;SDS011;49533;-34.520;150.798;2022-08-19T07:07:02;0.40;;;0.40;;
63398;SDS011;49533;-34.520;150.798;2022-08-19T07:09:38;0.45;;;0.45;;
63398;SDS011;49533;-34.520;150.798;2022-08-19T07:12:09;0.95;;;0.73;;
63398;SDS011;49533;-34.520;150.798;2022-08-19T07:14:37;2.03;;;0.50;;
63398;SDS011;49533;-34.520;150.798;2022-08-19T07:17:06;0.43;;;0.43;;
63398;SDS011;49533;-34.520;150.798;2022-08-19T07:19:34;1.00;;;0.93;;
63398;SDS011;49533;-34.520;150.798;2022-08-19T07:22:03;2.45;;;0.43;;
63398;SDS011;49533;-34.520;150.798;2022-08-19T07:24:32;0.28;;;0.28;;
63398;SDS011;49533;-34.520;150.798;2022-08-19T07:27:00;0.30;;;0.30;;
63398;SDS011;49533;-34.520;150.798;2022-08-19T07:29:30;0.60;;;0.60;;
63398;SDS011;49533;-34.520;150.798;2022-08-19T07:31:59;0.45;;;0.45;;
63398;SDS011;49533;-34.520;150.798;2022-08-19T07:34:28;2.58;;;0.60;;
63398;SDS011;49533;-34.520;150.798;2022-08-19T07:36:56;0.60;;;0.60;;
63398;SDS011;49533;-34.520;150.798;2022-08-19T07:39:25;0.55;;;0.40;;
63398;SDS011;49533;-34.520;150.798;2022-08-19T07:41:55;0.43;;;0.43;;
63398;SDS011;49533;-34.520;150.798;2022-08-19T07:44:24;0.60;;;0.30;;
63398;SDS011;49533;-34.520;150.798;2022-08-19T07:46:52;0.73;;;0.45;;
63398;SDS011;49533;-34.520;150.798;2022-08-19T07:49:21;0.70;;;0.52;;
63398;SDS011;49533;-34.520;150.798;2022-08-19T07:51:50;0.47;;;0.47;;
63398;SDS011;49533;-34.520;150.798;2022-08-19T07:54:23;0.90;;;0.77;;
63398;SDS011;49533;-34.520;150.798;2022-08-19T07:56:52;0.50;;;0.50;;
63398;SDS011;49533;-34.520;150.798;2022-08-19T07:59:20;0.68;;;0.68;;
63398;SDS011;49533;-34.520;150.798;2022-08-19T08:01:48;0.60;;;0.57;;
63398;SDS011;49533;-34.520;150.798;2022-08-19T08:04:16;0.40;;;0.40;;
63398;SDS011;49533;-34.520;150.798;2022-08-19T08:07:03;0.50;;;0.50;;
63398;SDS011;49533;-34.520;150.798;2022-08-19T08:09:49;4.40;;;0.75;;
63398;SDS011;49533;-34.520;150.798;2022-08-19T08:12:19;0.70;;;0.50;;
63398;SDS011;49533;-34.520;150.798;2022-08-19T08:14:55;1.20;;;0.70;;
63398;SDS011;49533;-34.520;150.798;2022-08-19T08:17:27;0.45;;;0.45;;
63398;SDS011;49533;-34.520;150.798;2022-08-19T08:19:56;4.50;;;1.17;;
63398;SDS011;49533;-34.520;150.798;2022-08-19T08:22:23;0.55;;;0.40;;
63398;SDS011;49533;-34.520;150.798;2022-08-19T08:25:11;0.95;;;0.50;;
63398;SDS011;49533;-34.520;150.798;2022-08-19T08:27:40;0.40;;;0.40;;
63398;SDS011;49533;-34.520;150.798;2022-08-19T08:30:10;1.20;;;0.57;;
63398;SDS011;49533;-34.520;150.798;2022-08-19T08:32:42;0.50;;;0.50;;
63398;SDS011;49533;-34.520;150.798;2022-08-19T08:35:10;0.57;;;0.30;;
63398;SDS011;49533;-34.520;150.798;2022-08-19T08:37:43;0.43;;;0.43;;
63398;SDS011;49533;-34.520;150.798;2022-08-19T08:40:20;0.50;;;0.50;;
63398;SDS011;49533;-34.520;150.798;2022-08-19T08:45:33;0.38;;;0.38;;
63398;SDS011;49533;-34.520;150.798;2022-08-19T08:48:09;0.90;;;0.55;;
63398;SDS011;49533;-34.520;150.798;2022-08-19T08:50:44;0.28;;;0.28;;
63398;SDS011;49533;-34.520;150.798;2022-08-19T08:53:14;0.40;;;0.40;;
63398;SDS011;49533;-34.520;150.798;2022-08-19T08:55:46;0.32;;;0.32;;
63398;SDS011;49533;-34.520;150.798;2022-08-19T08:58:15;0.43;;;0.43;;
63398;SDS011;49533;-34.520;150.798;2022-08-19T09:00:52;0.40;;;0.40;;
63398;SDS011;49533;-34.520;150.798;2022-08-19T09:03:23;0.70;;;0.40;;
63398;SDS011;49533;-34.520;150.798;2022-08-19T09:06:00;0.45;;;0.45;;
63398;SDS011;49533;-34.520;150.798;2022-08-19T09:17:21;1.00;;;0.40;;
63398;SDS011;49533;-34.520;150.798;2022-08-19T09:20:16;0.30;;;0.30;;
63398;SDS011;49533;-34.520;150.798;2022-08-19T09:22:46;0.32;;;0.30;;
63398;SDS011;49533;-34.520;150.798;2022-08-19T09:25:15;0.63;;;0.32;;
63398;SDS011;49533;-34.520;150.798;2022-08-19T09:27:45;0.50;;;0.50;;
63398;SDS011;49533;-34.520;150.798;2022-08-19T09:30:14;0.40;;;0.40;;
63398;SDS011;49533;-34.520;150.798;2022-08-19T09:32:44;0.40;;;0.40;;
63398;SDS011;49533;-34.520;150.798;2022-08-19T09:35:12;0.40;;;0.40;;
63398;SDS011;49533;-34.520;150.798;2022-08-19T09:37:40;1.05;;;0.50;;
63398;SDS011;49533;-34.520;150.798;2022-08-19T09:40:09;0.40;;;0.40;;
63398;SDS011;49533;-34.520;150.798;2022-08-19T09:42:38;0.28;;;0.28;;
63398;SDS011;49533;-34.520;150.798;2022-08-19T09:45:05;0.57;;;0.57;;
63398;SDS011;49533;-34.520;150.798;2022-08-19T09:47:32;1.65;;;0.70;;
63398;SDS011;49533;-34.520;150.798;2022-08-19T09:50:04;0.70;;;0.70;;
63398;SDS011;49533;-34.520;150.798;2022-08-19T09:52:33;0.80;;;0.80;;
63398;SDS011;49533;-34.520;150.798;2022-08-19T09:55:08;0.70;;;0.70;;
63398;SDS011;49533;-34.520;150.798;2022-08-19T09:57:36;0.63;;;0.63;;
63398;SDS011;49533;-34.520;150.798;2022-08-19T10:00:05;0.95;;;0.82;;
63398;SDS011;49533;-34.520;150.798;2022-08-19T10:02:34;1.05;;;0.90;;
63398;SDS011;49533;-34.520;150.798;2022-08-19T10:05:02;0.60;;;0.60;;
63398;SDS011;49533;-34.520;150.798;2022-08-19T10:07:48;0.65;;;0.65;;
63398;SDS011;49533;-34.520;150.798;2022-08-19T10:10:15;1.70;;;0.70;;
63398;SDS011;49533;-34.520;150.798;2022-08-19T10:12:42;0.80;;;0.80;;
63398;SDS011;49533;-34.520;150.798;2022-08-19T10:15:13;0.70;;;0.70;;
63398;SDS011;49533;-34.520;150.798;2022-08-19T10:17:40;0.73;;;0.73;;
63398;SDS011;49533;-34.520;150.798;2022-08-19T10:20:07;0.63;;;0.50;;
63398;SDS011;49533;-34.520;150.798;2022-08-19T10:22:35;0.50;;;0.50;;
63398;SDS011;49533;-34.520;150.798;2022-08-19T10:25:03;1.35;;;0.68;;
63398;SDS011;49533;-34.520;150.798;2022-08-19T10:27:31;0.63;;;0.63;;
63398;SDS011;49533;-34.520;150.798;2022-08-19T10:29:58;0.65;;;0.65;;
63398;SDS011;49533;-34.520;150.798;2022-08-19T10:32:25;0.60;;;0.60;;
63398;SDS011;49533;-34.520;150.798;2022-08-19T10:34:54;0.70;;;0.70;;
63398;SDS011;49533;-34.520;150.798;2022-08-19T10:37:21;0.70;;;0.70;;
63398;SDS011;49533;-34.520;150.798;2022-08-19T10:39:48;0.47;;;0.47;;
63398;SDS011;49533;-34.520;150.798;2022-08-19T10:42:16;0.52;;;0.40;;
63398;SDS011;49533;-34.520;150.798;2022-08-19T10:44:44;0.50;;;0.50;;
63398;SDS011;49533;-34.520;150.798;2022-08-19T10:47:12;1.10;;;0.50;;
63398;SDS011;49533;-34.520;150.798;2022-08-19T10:49:40;0.50;;;0.50;;
63398;SDS011;49533;-34.520;150.798;2022-08-19T10:52:25;0.55;;;0.47;;
63398;SDS011;49533;-34.520;150.798;2022-08-19T10:55:05;0.55;;;0.55;;
63398;SDS011;49533;-34.520;150.798;2022-08-19T10:57:51;0.50;;;0.50;;
63398;SDS011;49533;-34.520;150.798;2022-08-19T11:00:19;0.68;;;0.50;;
63398;SDS011;49533;-34.520;150.798;2022-08-19T11:02:46;0.40;;;0.40;;
63398;SDS011;49533;-34.520;150.798;2022-08-19T11:05:14;0.73;;;0.43;;
63398;SDS011;49533;-34.520;150.798;2022-08-19T11:07:43;0.40;;;0.40;;
63398;SDS011;49533;-34.520;150.798;2022-08-19T11:10:11;0.50;;;0.50;;
63398;SDS011;49533;-34.520;150.798;2022-08-19T11:12:44;0.40;;;0.40;;
63398;SDS011;49533;-34.520;150.798;2022-08-19T11:15:12;1.13;;;0.70;;
63398;SDS011;49533;-34.520;150.798;2022-08-19T11:17:39;0.52;;;0.52;;
63398;SDS011;49533;-34.520;150.798;2022-08-19T11:20:07;1.73;;;0.43;;
63398;SDS011;49533;-34.520;150.798;2022-08-19T11:22:34;0.55;;;0.52;;
63398;SDS011;49533;-34.520;150.798;2022-08-19T11:25:01;0.47;;;0.47;;
63398;SDS011;49533;-34.520;150.798;2022-08-19T11:27:29;0.50;;;0.50;;
63398;SDS011;49533;-34.520;150.798;2022-08-19T11:29:56;0.43;;;0.40;;
63398;SDS011;49533;-34.520;150.798;2022-08-19T11:32:23;0.85;;;0.60;;
63398;SDS011;49533;-34.520;150.798;2022-08-19T11:34:50;0.85;;;0.55;;
63398;SDS011;49533;-34.520;150.798;2022-08-19T11:37:18;0.45;;;0.45;;
63398;SDS011;49533;-34.520;150.798;2022-08-19T11:39:45;0.63;;;0.63;;
63398;SDS011;49533;-34.520;150.798;2022-08-19T11:42:12;1.45;;;0.50;;
63398;SDS011;49533;-34.520;150.798;2022-08-19T11:44:57;0.35;;;0.35;;
63398;SDS011;49533;-34.520;150.798;2022-08-19T11:47:24;0.80;;;0.60;;
63398;SDS011;49533;-34.520;150.798;2022-08-19T11:49:51;0.60;;;0.60;;
63398;SDS011;49533;-34.520;150.798;2022-08-19T11:52:18;0.55;;;0.50;;
63398;SDS011;49533;-34.520;150.798;2022-08-19T11:54:45;0.82;;;0.52;;
63398;SDS011;49533;-34.520;150.798;2022-08-19T11:57:12;1.42;;;0.70;;
63398;SDS011;49533;-34.520;150.798;2022-08-19T11:59:47;1.33;;;0.65;;
63398;SDS011;49533;-34.520;150.798;2022-08-19T12:02:15;0.85;;;0.52;;
63398;SDS011;49533;-34.520;150.798;2022-08-19T12:04:42;0.73;;;0.47;;
63398;SDS011;49533;-34.520;150.798;2022-08-19T12:07:09;1.25;;;0.57;;
63398;SDS011;49533;-34.520;150.798;2022-08-19T12:09:37;1.25;;;0.77;;
63398;SDS011;49533;-34.520;150.798;2022-08-19T12:12:04;0.95;;;0.52;;
63398;SDS011;49533;-34.520;150.798;2022-08-19T12:14:32;1.58;;;0.60;;
63398;SDS011;49533;-34.520;150.798;2022-08-19T12:17:00;0.90;;;0.60;;
63398;SDS011;49533;-34.520;150.798;2022-08-19T12:19:29;1.17;;;0.55;;
63398;SDS011;49533;-34.520;150.798;2022-08-19T12:22:00;1.95;;;0.60;;
63398;SDS011;49533;-34.520;150.798;2022-08-19T12:24:31;0.40;;;0.40;;
63398;SDS011;49533;-34.520;150.798;2022-08-19T12:26:59;1.70;;;0.77;;
63398;SDS011;49533;-34.520;150.798;2022-08-19T12:29:27;1.17;;;0.77;;
63398;SDS011;49533;-34.520;150.798;2022-08-19T12:31:56;2.30;;;0.60;;
63398;SDS011;49533;-34.520;150.798;2022-08-19T12:34:31;2.03;;;0.85;;
63398;SDS011;49533;-34.520;150.798;2022-08-19T12:37:00;2.67;;;0.90;;
63398;SDS011;49533;-34.520;150.798;2022-08-19T12:39:29;2.00;;;0.80;;
63398;SDS011;49533;-34.520;150.798;2022-08-19T12:41:56;1.60;;;0.90;;
63398;SDS011;49533;-34.520;150.798;2022-08-19T12:44:23;0.73;;;0.50;;
63398;SDS011;49533;-34.520;150.798;2022-08-19T12:46:50;2.60;;;1.10;;
63398;SDS011;49533;-34.520;150.798;2022-08-19T12:49:17;1.95;;;0.70;;
63398;SDS011;49533;-34.520;150.798;2022-08-19T12:51:44;1.63;;;0.90;;
63398;SDS011;49533;-34.520;150.798;2022-08-19T12:54:12;1.38;;;0.75;;
63398;SDS011;49533;-34.520;150.798;2022-08-19T12:56:40;2.30;;;0.70;;
63398;SDS011;49533;-34.520;150.798;2022-08-19T12:59:08;1.05;;;0.70;;
63398;SDS011;49533;-34.520;150.798;2022-08-19T13:01:36;2.03;;;0.70;;
63398;SDS011;49533;-34.520;150.798;2022-08-19T13:04:04;0.80;;;0.52;;
63398;SDS011;49533;-34.520;150.798;2022-08-19T13:06:31;3.83;;;1.02;;
63398;SDS011;49533;-34.520;150.798;2022-08-19T13:08:58;1.10;;;0.70;;
63398;SDS011;49533;-34.520;150.798;2022-08-19T13:11:24;3.55;;;1.10;;
63398;SDS011;49533;-34.520;150.798;2022-08-19T13:13:52;1.30;;;0.55;;
63398;SDS011;49533;-34.520;150.798;2022-08-19T13:16:20;1.05;;;0.75;;
63398;SDS011;49533;-34.520;150.798;2022-08-19T13:18:48;1.98;;;0.80;;
63398;SDS011;49533;-34.520;150.798;2022-08-19T13:21:19;2.05;;;1.15;;
63398;SDS011;49533;-34.520;150.798;2022-08-19T13:23:48;3.45;;;0.88;;
63398;SDS011;49533;-34.520;150.798;2022-08-19T13:26:16;2.38;;;0.80;;
63398;SDS011;49533;-34.520;150.798;2022-08-19T13:28:43;4.13;;;0.82;;
63398;SDS011;49533;-34.520;150.798;2022-08-19T13:31:30;1.30;;;0.80;;
63398;SDS011;49533;-34.520;150.798;2022-08-19T13:34:18;1.52;;;0.55;;
63398;SDS011;49533;-34.520;150.798;2022-08-19T13:36:52;1.88;;;0.60;;
63398;SDS011;49533;-34.520;150.798;2022-08-19T13:39:19;0.95;;;0.43;;
63398;SDS011;49533;-34.520;150.798;2022-08-19T13:41:48;3.33;;;1.20;;
63398;SDS011;49533;-34.520;150.798;2022-08-19T13:44:16;0.82;;;0.60;;
63398;SDS011;49533;-34.520;150.798;2022-08-19T13:46:44;1.75;;;0.60;;
63398;SDS011;49533;-34.520;150.798;2022-08-19T13:49:16;3.50;;;0.73;;
63398;SDS011;49533;-34.520;150.798;2022-08-19T13:51:43;3.90;;;1.23;;
63398;SDS011;49533;-34.520;150.798;2022-08-19T13:54:10;1.63;;;0.85;;
63398;SDS011;49533;-34.520;150.798;2022-08-19T13:56:42;3.35;;;1.10;;
63398;SDS011;49533;-34.520;150.798;2022-08-19T13:59:11;1.25;;;0.60;;
63398;SDS011;49533;-34.520;150.798;2022-08-19T14:01:38;4.55;;;0.95;;
63398;SDS011;49533;-34.520;150.798;2022-08-19T14:04:05;3.50;;;1.35;;
63398;SDS011;49533;-34.520;150.798;2022-08-19T14:06:33;1.42;;;0.77;;
63398;SDS011;49533;-34.520;150.798;2022-08-19T14:09:00;1.55;;;0.93;;
63398;SDS011;49533;-34.520;150.798;2022-08-19T14:11:28;3.28;;;1.35;;
63398;SDS011;49533;-34.520;150.798;2022-08-19T14:13:55;5.35;;;1.10;;
63398;SDS011;49533;-34.520;150.798;2022-08-19T14:16:22;0.88;;;0.50;;
63398;SDS011;49533;-34.520;150.798;2022-08-19T14:18:50;1.75;;;0.88;;
63398;SDS011;49533;-34.520;150.798;2022-08-19T14:21:22;0.82;;;0.60;;
63398;SDS011;49533;-34.520;150.798;2022-08-19T14:23:51;2.05;;;0.77;;
63398;SDS011;49533;-34.520;150.798;2022-08-19T14:26:20;1.55;;;0.75;;
63398;SDS011;49533;-34.520;150.798;2022-08-19T14:28:48;1.42;;;0.80;;
63398;SDS011;49533;-34.520;150.798;2022-08-19T14:31:16;1.25;;;0.50;;
63398;SDS011;49533;-34.520;150.798;2022-08-19T14:33:46;1.02;;;0.85;;
63398;SDS011;49533;-34.520;150.798;2022-08-19T14:36:13;2.30;;;0.60;;
63398;SDS011;49533;-34.520;150.798;2022-08-19T14:38:41;1.25;;;0.75;;
63398;SDS011;49533;-34.520;150.798;2022-08-19T14:41:10;2.70;;;0.85;;